createdAt,value
2023-01-17T00:00:50.259Z,98257.22
2023-01-17T00:02:52.132Z,98252.28
2023-01-17T00:04:53.800Z,98260.13
2023-01-17T00:06:58.227Z,98261.78
2023-01-17T00:09:02.565Z,98256.38
2023-01-17T00:11:05.842Z,98255.56
2023-01-17T00:13:07.856Z,98253.09
2023-01-17T00:15:10.677Z,98252.88
2023-01-17T00:17:12.329Z,98258.47
2023-01-17T00:19:14.129Z,98253.91
2023-01-17T00:21:15.889Z,98251.22
2023-01-17T00:23:21.599Z,98250.19
2023-01-17T00:25:26.380Z,98249.13
2023-01-17T00:27:28.207Z,98229.09
2023-01-17T00:29:30.091Z,98235.31
2023-01-17T00:31:31.805Z,98244.44
2023-01-17T00:33:34.073Z,98240.91
2023-01-17T00:35:35.670Z,98238.44
2023-01-17T00:37:37.410Z,98228.25
2023-01-17T00:39:40.318Z,98223.81
2023-01-17T00:41:42.131Z,98227.09
2023-01-17T00:43:43.802Z,98226.25
2023-01-17T00:45:46.531Z,98214.66
2023-01-17T00:47:48.209Z,98213.03
2023-01-17T00:49:50.770Z,98206.00
2023-01-17T00:51:52.334Z,98187.16
2023-01-17T00:53:53.903Z,98197.09
2023-01-17T00:56:00.692Z,98190.88
2023-01-17T00:58:06.303Z,98192.75
2023-01-17T01:00:12.140Z,98194.06
2023-01-17T01:02:14.015Z,98194.06
2023-01-17T01:04:15.759Z,98182.47
2023-01-17T01:06:18.937Z,98178.38
2023-01-17T01:08:22.652Z,98182.94
2023-01-17T01:10:24.345Z,98186.44
2023-01-17T01:12:27.412Z,98175.66
2023-01-17T01:14:31.022Z,98172.16
2023-01-17T01:16:32.915Z,98178.25
2023-01-17T01:18:34.647Z,98182.59
2023-01-17T01:20:36.287Z,98189.84
2023-01-17T01:22:37.882Z,98178.25
2023-01-17T01:24:39.365Z,98171.22
2023-01-17T01:26:40.855Z,98171.47
2023-01-17T01:28:43.767Z,98168.16
2023-01-17T01:30:45.406Z,98151.19
2023-01-17T01:32:47.166Z,98156.00
2023-01-17T01:34:48.707Z,98151.44
2023-01-17T01:36:50.250Z,98151.09
2023-01-17T01:38:55.926Z,98146.25
2023-01-17T01:40:59.236Z,98135.50
2023-01-17T01:43:02.480Z,98141.13
2023-01-17T01:45:16.849Z,98137.63
2023-01-17T01:47:26.971Z,98136.22
2023-01-17T01:49:28.880Z,98135.41
2023-01-17T01:51:35.378Z,98136.66
2023-01-17T01:53:46.588Z,98137.97
2023-01-17T01:55:51.264Z,98134.44
2023-01-17T01:57:59.891Z,98143.81
2023-01-17T02:00:08.239Z,98131.19
2023-01-17T02:02:09.976Z,98138.91
2023-01-17T02:04:13.050Z,98130.34
2023-01-17T02:06:26.127Z,98127.06
2023-01-17T02:08:28.164Z,98124.03
2023-01-17T02:10:34.032Z,98108.94
2023-01-17T02:12:36.021Z,98123.44
2023-01-17T02:14:37.707Z,98129.41
2023-01-17T02:17:08.220Z,98124.03
2023-01-17T02:20:05.288Z,98111.03
2023-01-17T02:22:31.850Z,98116.41
2023-01-17T02:25:06.865Z,98119.38
2023-01-17T02:27:21.504Z,98115.50
2023-01-17T02:30:01.963Z,98105.56
2023-01-17T02:32:10.371Z,98108.94
2023-01-17T02:34:19.387Z,98109.97
2023-01-17T02:36:27.437Z,98113.97
2023-01-17T02:38:37.133Z,98098.66
2023-01-17T02:40:43.047Z,98109.84
2023-01-17T02:42:51.802Z,98095.81
2023-01-17T02:44:53.357Z,98103.31
2023-01-17T02:46:56.598Z,98099.81
2023-01-17T02:48:59.833Z,98094.66
2023-01-17T02:51:27.220Z,98096.28
2023-01-17T02:53:43.818Z,98089.75
2023-01-17T02:55:57.264Z,98097.00
2023-01-17T02:58:10.035Z,98096.41
2023-01-17T03:00:22.082Z,98086.69
2023-01-17T03:02:35.617Z,98075.31
2023-01-17T03:04:44.911Z,98078.84
2023-01-17T03:06:51.904Z,98076.63
2023-01-17T03:08:54.433Z,98089.84
2023-01-17T03:10:58.006Z,98074.97
2023-01-17T03:13:04.121Z,98067.97
2023-01-17T03:15:09.892Z,98074.97
2023-01-17T03:17:11.598Z,98079.78
2023-01-17T03:19:13.299Z,98071.09
2023-01-17T03:21:16.432Z,98076.50
2023-01-17T03:23:18.170Z,98078.13
2023-01-17T03:25:19.942Z,98073.00
2023-01-17T03:27:21.579Z,98065.97
2023-01-17T03:29:24.374Z,98070.88
2023-01-17T03:31:27.543Z,98069.50
2023-01-17T03:33:30.864Z,98068.88
2023-01-17T03:35:32.665Z,98061.63
2023-01-17T03:37:37.863Z,98069.72
2023-01-17T03:39:41.361Z,98067.03
2023-01-17T03:41:43.148Z,98058.13
2023-01-17T03:43:45.771Z,98066.19
2023-01-17T03:45:51.514Z,98059.19
2023-01-17T03:47:53.203Z,98064.81
2023-01-17T03:49:54.933Z,98057.78
2023-01-17T03:51:56.651Z,98041.41
2023-01-17T03:53:59.861Z,98054.03
2023-01-17T03:56:01.654Z,98052.16
2023-01-17T03:58:08.111Z,98053.00
2023-01-17T04:00:11.071Z,98054.03
2023-01-17T04:02:12.949Z,98046.78
2023-01-17T04:04:14.613Z,98047.25
2023-01-17T04:06:16.563Z,98049.69
2023-01-17T04:08:18.222Z,98048.88
2023-01-17T04:10:25.005Z,98047.25
2023-01-17T04:12:26.776Z,98050.75
2023-01-17T04:14:29.782Z,98049.13
2023-01-17T04:16:38.553Z,98041.28
2023-01-17T04:18:40.204Z,98036.72
2023-01-17T04:20:42.000Z,98036.59
2023-01-17T04:22:43.747Z,98031.22
2023-01-17T04:24:47.235Z,98029.34
2023-01-17T04:26:50.279Z,98029.34
2023-01-17T04:28:51.840Z,98036.59
2023-01-17T04:30:53.551Z,98025.81
2023-01-17T04:32:55.412Z,98035.81
2023-01-17T04:34:59.303Z,98019.06
2023-01-17T04:37:02.244Z,98026.06
2023-01-17T04:39:06.079Z,98023.13
2023-01-17T04:41:09.664Z,98022.34
2023-01-17T04:43:12.874Z,98025.25
2023-01-17T04:45:16.469Z,98024.22
2023-01-17T04:47:17.959Z,98021.53
2023-01-17T04:49:19.515Z,98023.13
2023-01-17T04:51:21.156Z,98019.66
2023-01-17T04:53:22.756Z,98020.69
2023-01-17T04:55:24.616Z,98018.22
2023-01-17T04:57:26.148Z,98016.00
2023-01-17T04:59:29.091Z,98028.16
2023-01-17T05:01:30.757Z,98017.41
2023-01-17T05:03:33.220Z,98014.72
2023-01-17T05:05:34.788Z,98014.97
2023-01-17T05:07:38.271Z,98010.41
2023-01-17T05:09:40.251Z,98014.72
2023-01-17T05:12:03.781Z,98013.44
2023-01-17T05:14:05.426Z,98012.84
2023-01-17T05:16:09.138Z,98017.41
2023-01-17T05:18:12.769Z,98017.66
2023-01-17T05:20:17.195Z,98013.69
2023-01-17T05:22:18.940Z,98016.00
2023-01-17T05:24:20.838Z,98017.88
2023-01-17T05:26:22.454Z,98018.91
2023-01-17T05:28:24.196Z,98024.09
2023-01-17T05:30:27.358Z,98028.63
2023-01-17T05:32:30.377Z,98021.41
2023-01-17T05:34:33.519Z,98016.00
2023-01-17T05:36:38.997Z,98017.06
2023-01-17T05:38:41.913Z,98017.88
2023-01-17T05:40:43.715Z,98017.31
2023-01-17T05:42:47.919Z,98020.81
2023-01-17T05:44:49.615Z,98022.91
2023-01-17T15:34:09.722Z,98649.22
2023-01-17T16:21:45.962Z,98716.28
2023-01-17T16:35:15.029Z,98726.28
2023-01-17T17:42:55.107Z,98823.44
2023-01-17T18:04:44.818Z,98845.41
2023-01-17T18:12:14.525Z,98849.34
2023-01-17T18:14:26.743Z,98845.25
2023-01-17T20:02:35.623Z,98949.97
2023-01-17T20:13:12.151Z,98965.00
